Time;durP1;ratioP1;P1;durP2;ratioP2;P2;SDS_P1;SDS_P2;PMS_P1;PMS_P2;Temp;Humidity;BMP_temperature;BMP_pressure;BME280_temperature;BME280_humidity;BME280_pressure;Samples;Min_cycle;Max_cycle;Signal;HPM_P1;HPM_P2
2023/06/02 00:01:57;;;;;;;;;;;;;;;17.14;40.84;97815.75;5143933;27;19923;-62
2023/06/02 00:04:26;;;;;;;;;;;;;;;17.13;40.82;97814.94;5140989;27;20318;-61
2023/06/02 00:06:55;;;;;;;;;;;;;;;17.13;41.19;97816.91;5137342;27;20337;-61
2023/06/02 00:09:23;;;;;;;;;;;;;;;17.14;41.08;97819.28;5137428;27;20280;-61
2023/06/02 00:11:50;;;;;;;;;;;;;;;17.16;41.07;97818.94;5150122;27;19923;-65
2023/06/02 00:14:21;;;;;;;;;;;;;;;17.12;41.10;97821.59;5142194;27;19934;-61
2023/06/02 00:16:50;;;;;;;;;;;;;;;17.06;41.25;97820.28;5148860;27;19922;-63
2023/06/02 00:19:18;;;;;;;;;;;;;;;17.04;41.48;97817.06;5118618;27;19930;-62
2023/06/02 00:21:47;;;;;;;;;;;;;;;17.03;41.49;97823.72;5134572;27;20014;-61
2023/06/02 00:24:15;;;;;;;;;;;;;;;17.06;41.49;97820.28;5142656;27;19919;-62
2023/06/02 00:26:43;;;;;;;;;;;;;;;16.91;42.27;97823.84;5151320;27;20467;-61
2023/06/02 00:29:11;;;;;;;;;;;;;;;16.93;42.17;97824.25;5133569;27;19919;-61
2023/06/02 00:31:40;;;;;;;;;;;;;;;16.87;42.48;97820.19;5123612;27;19931;-61
2023/06/02 00:34:08;;;;;;;;;;;;;;;16.80;42.93;97823.56;5128429;27;20649;-61
2023/06/02 00:36:38;;;;;;;;;;;;;;;16.74;43.03;97823.03;5127061;27;20280;-61
2023/06/02 00:39:06;;;;;;;;;;;;;;;16.64;43.76;97826.28;5122715;27;19927;-62
2023/06/02 00:41:34;;;;;;;;;;;;;;;16.54;44.06;97832.28;5135229;27;19948;-63
2023/06/02 00:44:02;;;;;;;;;;;;;;;16.39;44.77;97831.09;5137346;27;19947;-61
2023/06/02 00:46:31;;;;;;;;;;;;;;;16.48;44.63;97825.47;5134399;27;20010;-63
2023/06/02 00:49:00;;;;;;;;;;;;;;;16.43;44.50;97825.72;5143077;27;19927;-66
2023/06/02 00:51:27;;;;;;;;;;;;;;;16.24;45.46;97827.19;5132618;27;19923;-61
2023/06/02 00:53:56;;;;;;;;;;;;;;;16.23;45.71;97833.00;5140378;27;19924;-62
2023/06/02 00:56:24;;;;;;;;;;;;;;;16.29;45.66;97833.56;5129449;27;19961;-61
2023/06/02 00:58:52;;;;;;;;;;;;;;;16.29;45.71;97825.34;5123625;27;19923;-61
2023/06/02 01:01:19;;;;;;;;;;;;;;;16.30;45.82;97826.91;5123267;27;19919;-63
2023/06/02 01:03:48;;;;;;;;;;;;;;;16.29;45.95;97825.34;5123963;27;19919;-61
2023/06/02 01:06:20;;;;;;;;;;;;;;;16.29;46.01;97828.88;5119208;27;20013;-64
2023/06/02 01:08:49;;;;;;;;;;;;;;;16.24;46.50;97827.19;5133036;27;19926;-62
2023/06/02 01:14:48;;;;;;;;;;;;;;;16.18;46.91;97831.31;5509816;22;19926;-62
2023/06/02 01:17:17;;;;;;;;;;;;;;;16.16;46.93;97833.63;4985555;28;20017;-61
2023/06/02 01:19:45;;;;;;;;;;;;;;;16.13;47.18;97828.81;4975472;28;19922;-61
2023/06/02 01:22:15;;;;;;;;;;;;;;;16.05;47.38;97829.78;4973669;28;20434;-60
2023/06/02 01:24:47;;;;;;;;;;;;;;;15.94;47.95;97831.44;4986122;28;20363;-61
2023/06/02 01:27:16;;;;;;;;;;;;;;;15.89;48.21;97837.16;4983969;28;19979;-64
2023/06/02 01:29:44;;;;;;;;;;;;;;;15.88;48.21;97835.56;4976214;28;19921;-61
2023/06/02 01:32:14;;;;;;;;;;;;;;;15.83;48.41;97827.59;4971636;28;20398;-61
2023/06/02 01:34:45;;;;;;;;;;;;;;;15.80;48.88;97825.53;4976650;28;19928;-62
2023/06/02 01:37:15;;;;;;;;;;;;;;;15.75;49.02;97828.53;4992694;28;19929;-65
2023/06/02 01:39:44;;;;;;;;;;;;;;;15.73;49.00;97833.56;4975893;28;19968;-60
2023/06/02 01:42:12;;;;;;;;;;;;;;;15.69;49.23;97834.25;4973360;28;19928;-61
2023/06/02 01:44:40;;;;;;;;;;;;;;;15.55;49.76;97833.78;4979331;28;19921;-60
2023/06/02 01:47:08;;;;;;;;;;;;;;;15.58;49.77;97824.09;4973900;28;19926;-60
2023/06/02 01:49:36;;;;;;;;;;;;;;;15.50;50.25;97827.75;4974048;28;19929;-61
2023/06/02 01:52:04;;;;;;;;;;;;;;;15.49;50.19;97823.41;5006389;28;20013;-60
2023/06/02 01:54:32;;;;;;;;;;;;;;;15.48;50.31;97830.03;4972715;28;19945;-61
2023/06/02 01:57:00;;;;;;;;;;;;;;;15.46;50.68;97833.13;5006595;28;19922;-61
2023/06/02 01:59:28;;;;;;;;;;;;;;;15.39;51.01;97832.91;5004115;28;19930;-60
2023/06/02 02:01:57;;;;;;;;;;;;;;;15.37;51.09;97829.72;5004899;28;19976;-60
2023/06/02 02:04:24;;;;;;;;;;;;;;;15.33;51.36;97824.13;4980596;28;19921;-61
2023/06/02 02:06:54;;;;;;;;;;;;;;;15.33;51.46;97824.13;4989701;28;20369;-60
2023/06/02 02:09:22;;;;;;;;;;;;;;;15.40;51.49;97829.03;4991109;28;19969;-60
2023/06/02 02:11:50;;;;;;;;;;;;;;;15.39;51.75;97827.44;4990122;28;19922;-61
2023/06/02 02:14:25;;;;;;;;;;;;;;;15.37;51.64;97829.72;4969372;28;20424;-60
2023/06/02 02:16:54;;;;;;;;;;;;;;;15.34;52.17;97841.34;4972006;28;19928;-60
2023/06/02 02:19:23;;;;;;;;;;;;;;;15.27;52.43;97841.94;4961859;28;19922;-61
2023/06/02 02:21:52;;;;;;;;;;;;;;;15.28;52.43;97832.56;4970047;28;19922;-61
2023/06/02 02:24:20;;;;;;;;;;;;;;;15.20;52.58;97831.56;4967191;28;19972;-64
2023/06/02 02:26:47;;;;;;;;;;;;;;;15.18;53.00;97833.84;4970977;28;19922;-62
2023/06/02 02:29:16;;;;;;;;;;;;;;;15.10;53.53;97837.50;4977650;28;19927;-61
2023/06/02 02:31:45;;;;;;;;;;;;;;;14.99;54.34;97841.03;4970524;28;20005;-61
2023/06/02 02:34:13;;;;;;;;;;;;;;;14.95;54.60;97840.91;4970791;28;19969;-60
2023/06/02 02:36:41;;;;;;;;;;;;;;;14.89;55.10;97842.28;4975289;28;19922;-61
2023/06/02 02:39:09;;;;;;;;;;;;;;;14.89;55.21;97848.53;4968586;28;19930;-64
2023/06/02 02:41:36;;;;;;;;;;;;;;;14.94;55.05;97850.25;4979295;28;19928;-63
2023/06/02 02:44:04;;;;;;;;;;;;;;;14.83;55.79;97851.84;4969218;28;19927;-61
2023/06/02 02:46:33;;;;;;;;;;;;;;;14.80;55.87;97847.84;4972999;28;19926;-61
2023/06/02 02:49:02;;;;;;;;;;;;;;;14.74;56.25;97848.41;4973390;28;19930;-60
2023/06/02 02:51:30;;;;;;;;;;;;;;;14.77;56.19;97851.28;4971681;28;19922;-61
2023/06/02 02:53:58;;;;;;;;;;;;;;;14.63;56.82;97851.59;4971502;28;20362;-61
2023/06/02 02:56:26;;;;;;;;;;;;;;;14.72;56.54;97851.50;4974047;28;19922;-60
2023/06/02 02:58:57;;;;;;;;;;;;;;;14.70;56.36;97850.22;4971994;28;19922;-66
2023/06/02 03:01:26;;;;;;;;;;;;;;;14.63;56.76;97851.59;4974773;28;20384;-61
2023/06/02 03:03:56;;;;;;;;;;;;;;;14.47;57.48;97856.09;4987799;28;20056;-67
2023/06/02 03:06:31;;;;;;;;;;;;;;;14.54;57.02;97848.16;4976699;28;19929;-61
2023/06/02 03:08:59;;;;;;;;;;;;;;;14.62;56.89;97855.47;4978971;28;19934;-61
2023/06/02 03:11:28;;;;;;;;;;;;;;;14.65;56.68;97852.06;4970901;28;19926;-61
2023/06/02 03:13:57;;;;;;;;;;;;;;;14.65;56.44;97852.06;4985238;28;19958;-61
2023/06/02 03:16:25;;;;;;;;;;;;;;;14.61;56.73;97859.34;4953516;28;19923;-64
2023/06/02 03:18:53;;;;;;;;;;;;;;;14.63;56.62;97859.78;4955940;28;20009;-61
2023/06/02 03:21:21;;;;;;;;;;;;;;;14.55;56.85;97860.69;4956223;28;19923;-62
2023/06/02 03:23:51;;;;;;;;;;;;;;;14.48;57.16;97860.44;4985748;28;20393;-62
2023/06/02 03:26:25;;;;;;;;;;;;;;;14.45;57.30;97860.31;4966827;28;19931;-61
2023/06/02 03:28:54;;;;;;;;;;;;;;;14.45;57.29;97852.91;4953817;28;19922;-68
2023/06/02 03:31:24;;;;;;;;;;;;;;;14.48;57.01;97856.91;4960423;28;20277;-61
2023/06/02 03:33:53;;;;;;;;;;;;;;;14.31;57.84;97875.03;4959562;28;19923;-61
2023/06/02 03:36:24;;;;;;;;;;;;;;;14.32;57.69;97873.91;4963237;28;19926;-61
2023/06/02 03:38:56;;;;;;;;;;;;;;;14.39;57.36;97868.72;4963163;28;20356;-67
2023/06/02 03:41:24;;;;;;;;;;;;;;;14.38;57.53;97872.59;4968428;28;20321;-61
2023/06/02 03:43:52;;;;;;;;;;;;;;;14.38;57.48;97869.03;4953720;28;19954;-63
2023/06/02 03:46:20;;;;;;;;;;;;;;;14.28;57.89;97875.72;4952993;28;19933;-61
2023/06/02 03:48:48;;;;;;;;;;;;;;;14.24;57.81;97883.00;4954574;28;19930;-60
2023/06/02 03:51:17;;;;;;;;;;;;;;;14.12;58.33;97881.03;4953250;28;20009;-60
2023/06/02 03:53:45;;;;;;;;;;;;;;;14.07;58.70;97875.75;4951256;28;19923;-62
2023/06/02 03:56:14;;;;;;;;;;;;;;;14.01;59.01;97881.75;4951840;28;19930;-60
2023/06/02 03:58:43;;;;;;;;;;;;;;;13.99;58.90;97879.34;4954199;28;19986;-61
2023/06/02 04:01:12;;;;;;;;;;;;;;;13.96;59.35;97882.78;4950117;28;19930;-62
2023/06/02 04:03:42;;;;;;;;;;;;;;;13.91;59.44;97885.69;4953193;29;20391;-61
2023/06/02 04:06:12;;;;;;;;;;;;;;;13.93;59.39;97880.69;4953054;28;19953;-60
2023/06/02 04:08:41;;;;;;;;;;;;;;;13.94;59.32;97881.50;4941253;29;19954;-62
2023/06/02 04:11:08;;;;;;;;;;;;;;;13.96;59.28;97884.72;4958824;28;20057;-60
2023/06/02 04:13:38;;;;;;;;;;;;;;;13.96;59.35;97877.31;4949344;28;20025;-61
2023/06/02 04:16:07;;;;;;;;;;;;;;;13.97;59.27;97884.38;5005111;28;20394;-62
2023/06/02 04:18:37;;;;;;;;;;;;;;;13.95;59.50;97886.59;4972602;28;20382;-61
2023/06/02 04:21:05;;;;;;;;;;;;;;;13.98;59.48;97891.41;4989703;28;19965;-61
2023/06/02 04:23:33;;;;;;;;;;;;;;;14.02;59.28;97897.03;4989063;28;19922;-60
2023/06/02 04:26:01;;;;;;;;;;;;;;;13.87;59.79;97898.41;4991523;28;19922;-61
2023/06/02 04:28:30;;;;;;;;;;;;;;;13.77;60.12;97899.59;4988808;28;20016;-60
2023/06/02 04:31:00;;;;;;;;;;;;;;;13.81;60.08;97897.81;4975168;28;19953;-60
2023/06/02 04:33:31;;;;;;;;;;;;;;;13.88;59.75;97892.63;4972327;28;19926;-61
2023/06/02 04:36:00;;;;;;;;;;;;;;;13.95;59.75;97894.81;4975121;28;19926;-60
2023/06/02 04:38:29;;;;;;;;;;;;;;;13.75;60.22;97907.34;4976697;28;19921;-60
2023/06/02 04:41:01;;;;;;;;;;;;;;;13.73;60.45;97900.59;4973839;28;19972;-62
2023/06/02 04:43:31;;;;;;;;;;;;;;;13.69;60.32;97894.19;4975254;28;19936;-61
2023/06/02 04:46:01;;;;;;;;;;;;;;;13.73;60.26;97900.59;5004443;28;19968;-64
2023/06/02 04:48:30;;;;;;;;;;;;;;;13.63;60.30;97899.88;4971989;28;19933;-60
2023/06/02 04:51:01;;;;;;;;;;;;;;;13.70;60.24;97902.06;4974160;28;19922;-68
2023/06/02 04:53:44;;;;;;;;;;;;;;;13.84;59.92;97899.06;4987485;28;19957;-60
2023/06/02 04:56:25;;;;;;;;;;;;;;;13.82;59.98;97901.34;4985725;28;20093;-60
2023/06/02 04:59:00;;;;;;;;;;;;;;;13.94;59.29;97895.94;4978682;28;20045;-60
2023/06/02 05:01:35;;;;;;;;;;;;;;;13.95;59.69;97903.00;4978656;28;19922;-61
2023/06/02 05:04:04;;;;;;;;;;;;;;;13.94;59.22;97908.81;4966233;28;19941;-61
2023/06/02 05:06:32;;;;;;;;;;;;;;;13.93;59.52;97905.28;4966816;28;20343;-61
2023/06/02 05:09:01;;;;;;;;;;;;;;;13.96;59.84;97910.09;4982376;28;19925;-61
2023/06/02 05:11:30;;;;;;;;;;;;;;;13.92;59.60;97900.16;4977759;28;19926;-60
2023/06/02 05:13:59;;;;;;;;;;;;;;;13.75;59.77;97903.81;4971329;28;20020;-61
2023/06/02 05:16:29;;;;;;;;;;;;;;;13.71;60.37;97911.06;4972431;28;19922;-61
2023/06/02 05:18:58;;;;;;;;;;;;;;;13.74;60.25;97911.22;4968110;28;19922;-61
2023/06/02 05:21:28;;;;;;;;;;;;;;;13.75;60.06;97914.75;4976239;28;20322;-61
2023/06/02 05:23:59;;;;;;;;;;;;;;;13.84;59.72;97915.47;4972868;28;20276;-60
2023/06/02 05:26:27;;;;;;;;;;;;;;;13.91;59.71;97915.75;4971673;28;19929;-60
2023/06/02 05:28:57;;;;;;;;;;;;;;;13.88;59.89;97924.59;4969621;28;19957;-61
2023/06/02 05:31:25;;;;;;;;;;;;;;;13.86;59.83;97924.13;4973410;28;19957;-60
2023/06/02 05:33:54;;;;;;;;;;;;;;;13.89;60.05;97926.19;5000910;28;19922;-67
2023/06/02 05:36:23;;;;;;;;;;;;;;;14.06;59.71;97923.34;4981378;28;19927;-62
2023/06/02 05:38:54;;;;;;;;;;;;;;;14.07;59.30;97927.66;4965784;28;20773;-61
2023/06/02 05:41:24;;;;;;;;;;;;;;;14.09;59.12;97925.38;4969409;28;19937;-61
2023/06/02 05:43:52;;;;;;;;;;;;;;;14.00;58.98;97927.38;4974794;28;19922;-61
2023/06/02 05:46:20;;;;;;;;;;;;;;;14.09;59.08;97919.94;4981767;28;20016;-65
2023/06/02 05:48:48;;;;;;;;;;;;;;;14.03;58.88;97926.72;4973472;28;19926;-60
2023/06/02 05:51:18;;;;;;;;;;;;;;;14.14;58.55;97927.13;4982282;28;19930;-65
2023/06/02 05:53:49;;;;;;;;;;;;;;;14.16;58.39;97925.66;4997807;28;20012;-61
2023/06/02 05:56:18;;;;;;;;;;;;;;;14.11;58.73;97928.59;4974533;28;19968;-60
2023/06/02 05:58:47;;;;;;;;;;;;;;;14.15;58.60;97928.72;4968550;28;19922;-64
2023/06/02 06:01:15;;;;;;;;;;;;;;;14.36;58.31;97925.97;4975380;28;20364;-61
2023/06/02 06:03:43;;;;;;;;;;;;;;;14.38;57.85;97926.41;4967935;28;19929;-61
2023/06/02 06:06:12;;;;;;;;;;;;;;;14.46;57.90;97930.22;4971880;28;19926;-60
2023/06/02 06:08:43;;;;;;;;;;;;;;;14.23;58.04;97927.06;4981126;28;19922;-63
2023/06/02 06:11:12;;;;;;;;;;;;;;;14.17;58.33;97926.47;5004823;28;19931;-60
2023/06/02 06:13:41;;;;;;;;;;;;;;;14.13;58.74;97923.59;4968197;28;19977;-59
2023/06/02 06:16:08;;;;;;;;;;;;;;;14.34;58.20;97933.72;4974303;28;19922;-60
2023/06/02 06:18:41;;;;;;;;;;;;;;;14.52;57.57;97920.69;4977232;28;20012;-64
2023/06/02 06:21:09;;;;;;;;;;;;;;;14.67;57.33;97922.81;4989559;28;19933;-61
2023/06/02 06:23:37;;;;;;;;;;;;;;;14.73;57.65;97921.44;5005669;28;19933;-64
2023/06/02 06:26:05;;;;;;;;;;;;;;;14.90;57.04;97925.94;4968085;28;20012;-59
2023/06/02 06:28:35;;;;;;;;;;;;;;;14.96;56.37;97924.56;4969262;28;19977;-60
2023/06/02 06:31:03;;;;;;;;;;;;;;;14.81;56.89;97923.31;4988154;28;20016;-64
2023/06/02 06:33:33;;;;;;;;;;;;;;;14.92;57.09;97929.94;4992529;28;20078;-61
2023/06/02 06:36:00;;;;;;;;;;;;;;;15.06;56.52;97924.13;4975134;28;19944;-61
2023/06/02 06:38:31;;;;;;;;;;;;;;;15.17;56.12;97930.75;4981317;28;19998;-61
2023/06/02 06:41:00;;;;;;;;;;;;;;;15.19;55.93;97931.22;4989292;28;19985;-62
2023/06/02 06:43:28;;;;;;;;;;;;;;;15.23;55.87;97930.53;4978905;28;19928;-61
2023/06/02 06:46:06;;;;;;;;;;;;;;;15.36;55.78;97926.69;5004347;28;19929;-61
2023/06/02 06:48:34;;;;;;;;;;;;;;;15.39;55.97;97931.44;4990798;28;19982;-61
2023/06/02 06:51:02;;;;;;;;;;;;;;;15.54;55.38;97936.25;4992634;28;19922;-60
2023/06/02 06:53:30;;;;;;;;;;;;;;;15.68;55.44;97931.25;4985904;28;19921;-61
2023/06/02 06:55:59;;;;;;;;;;;;;;;15.80;55.17;97935.13;5006827;28;20334;-61
2023/06/02 06:58:27;;;;;;;;;;;;;;;15.53;55.86;97931.13;4993493;28;20329;-62
2023/06/02 07:00:55;;;;;;;;;;;;;;;15.67;55.30;97943.34;4993168;28;19933;-62
2023/06/02 07:03:24;;;;;;;;;;;;;;;15.68;55.74;97944.16;4991883;28;19926;-60
2023/06/02 07:05:52;;;;;;;;;;;;;;;15.78;55.16;97938.22;4994299;28;19972;-61
2023/06/02 07:08:20;;;;;;;;;;;;;;;15.87;54.86;97938.06;4976263;28;19973;-60
2023/06/02 07:10:48;;;;;;;;;;;;;;;15.92;54.89;97940.56;4978960;28;19956;-61
2023/06/02 07:13:16;;;;;;;;;;;;;;;15.92;55.29;97946.84;4990509;28;19922;-61
2023/06/02 07:15:44;;;;;;;;;;;;;;;15.92;55.24;97948.78;4993933;28;19922;-61
2023/06/02 07:18:12;;;;;;;;;;;;;;;16.08;54.72;97952.41;5004521;28;20125;-61
2023/06/02 07:20:41;;;;;;;;;;;;;;;16.23;54.32;97951.69;4990053;28;19925;-63
2023/06/02 07:23:09;;;;;;;;;;;;;;;16.35;53.96;97950.03;4992401;28;19977;-61
2023/06/02 07:25:37;;;;;;;;;;;;;;;16.37;53.79;97953.25;4974767;28;19984;-60
2023/06/02 07:28:05;;;;;;;;;;;;;;;16.44;53.79;97947.97;4991643;28;20275;-62
2023/06/02 07:30:33;;;;;;;;;;;;;;;16.55;53.88;97960.03;4994515;28;19926;-61
2023/06/02 07:33:00;;;;;;;;;;;;;;;16.60;53.57;97957.03;4984868;28;19949;-61
2023/06/02 07:35:30;;;;;;;;;;;;;;;16.71;53.27;97955.41;4988353;28;19922;-63
2023/06/02 07:38:00;;;;;;;;;;;;;;;16.73;52.59;97953.13;4974241;28;20407;-61
2023/06/02 07:40:28;;;;;;;;;;;;;;;16.72;52.73;97959.78;4993226;28;19922;-62
2023/06/02 07:42:56;;;;;;;;;;;;;;;16.72;52.80;97954.28;5007144;28;19921;-61
2023/06/02 07:45:28;;;;;;;;;;;;;;;16.83;52.43;97957.31;4987860;28;19928;-62
2023/06/02 07:47:56;;;;;;;;;;;;;;;16.68;52.58;97958.03;4979357;28;20017;-61
2023/06/02 07:50:26;;;;;;;;;;;;;;;16.83;52.51;97962.81;4987340;28;19926;-63
2023/06/02 07:52:54;;;;;;;;;;;;;;;16.92;52.58;97968.13;4990766;28;19934;-67
2023/06/02 07:55:26;;;;;;;;;;;;;;;16.92;52.47;97962.63;4991676;28;19929;-61
2023/06/02 07:57:54;;;;;;;;;;;;;;;17.02;52.57;97956.63;4986634;28;19921;-65
2023/06/02 08:00:23;;;;;;;;;;;;;;;17.11;52.24;97960.00;4991819;28;20245;-61
2023/06/02 08:02:51;;;;;;;;;;;;;;;17.11;51.98;97954.50;4991213;28;19957;-63
2023/06/02 08:05:20;;;;;;;;;;;;;;;17.19;52.05;97955.47;4976344;28;20394;-61
2023/06/02 08:07:48;;;;;;;;;;;;;;;17.08;51.70;97955.22;4994065;28;19926;-62
2023/06/02 08:10:17;;;;;;;;;;;;;;;17.15;51.84;97955.41;4976491;28;19928;-61
2023/06/02 08:12:47;;;;;;;;;;;;;;;17.25;51.85;97960.34;4992131;28;19940;-62
2023/06/02 08:15:15;;;;;;;;;;;;;;;17.32;51.34;97953.47;4991691;28;19932;-61
2023/06/02 08:17:43;;;;;;;;;;;;;;;17.32;51.03;97957.00;4991954;28;20248;-62
2023/06/02 08:20:12;;;;;;;;;;;;;;;17.22;51.26;97952.03;4991629;28;20632;-61
2023/06/02 08:22:40;;;;;;;;;;;;;;;17.31;51.39;97951.84;4990719;28;19922;-61
2023/06/02 08:25:09;;;;;;;;;;;;;;;17.34;51.33;97956.66;4992264;28;19929;-63
2023/06/02 08:27:38;;;;;;;;;;;;;;;17.37;51.12;97954.00;4993031;28;20345;-61
2023/06/02 08:30:08;;;;;;;;;;;;;;;17.43;50.98;97960.00;4990672;28;19929;-62
2023/06/02 08:32:37;;;;;;;;;;;;;;;17.38;51.16;97952.84;4991365;28;19934;-60
2023/06/02 08:35:05;;;;;;;;;;;;;;;17.40;51.03;97953.28;4983601;28;20016;-61
2023/06/02 08:37:33;;;;;;;;;;;;;;;17.47;50.86;97952.63;5009846;28;19925;-61
2023/06/02 08:40:01;;;;;;;;;;;;;;;17.51;50.55;97943.34;4993132;28;19928;-61
2023/06/02 08:42:30;;;;;;;;;;;;;;;17.72;50.57;97954.06;4993339;28;19996;-61
2023/06/02 08:44:57;;;;;;;;;;;;;;;17.87;50.33;97946.16;4991816;28;19922;-61
2023/06/02 08:47:28;;;;;;;;;;;;;;;17.84;49.83;97952.34;4993403;28;19926;-62
2023/06/02 08:49:57;;;;;;;;;;;;;;;17.83;49.97;97948.03;4990492;28;20016;-63
2023/06/02 08:52:26;;;;;;;;;;;;;;;17.90;49.65;97953.69;4990648;28;20418;-63
2023/06/02 08:54:53;;;;;;;;;;;;;;;17.94;49.23;97949.06;4994310;28;19930;-61
2023/06/02 08:57:23;;;;;;;;;;;;;;;18.00;48.97;97940.19;4993065;28;19995;-61
2023/06/02 08:59:52;;;;;;;;;;;;;;;17.95;49.08;97948.72;4986765;28;19921;-61
2023/06/02 09:02:19;;;;;;;;;;;;;;;18.05;49.08;97948.13;4964399;28;19929;-61
2023/06/02 09:04:49;;;;;;;;;;;;;;;18.15;48.33;97952.28;4986078;28;19929;-60
2023/06/02 09:07:23;;;;;;;;;;;;;;;18.15;47.89;97949.53;4992048;28;20009;-61
2023/06/02 09:09:51;;;;;;;;;;;;;;;18.16;47.45;97948.34;4978294;28;19984;-61
2023/06/02 09:12:21;;;;;;;;;;;;;;;18.21;47.16;97942.56;4992070;28;19922;-60
2023/06/02 09:14:49;;;;;;;;;;;;;;;18.27;47.41;97943.13;4974694;28;19925;-62
2023/06/02 09:17:26;;;;;;;;;;;;;;;18.28;47.47;97944.69;4992884;28;19926;-60
2023/06/02 09:19:56;;;;;;;;;;;;;;;18.29;47.51;97947.09;4990070;28;19992;-67
2023/06/02 09:22:24;;;;;;;;;;;;;;;18.37;46.83;97938.97;4991832;28;19925;-60
2023/06/02 09:24:53;;;;;;;;;;;;;;;18.35;46.41;97938.53;5005649;28;19925;-61
2023/06/02 09:27:26;;;;;;;;;;;;;;;18.36;45.71;97937.38;4991922;28;20452;-66
2023/06/02 09:29:59;;;;;;;;;;;;;;;18.42;45.80;97938.69;4987175;28;19980;-67
2023/06/02 09:32:28;;;;;;;;;;;;;;;18.28;45.88;97942.75;4992873;28;19925;-62
2023/06/02 09:34:57;;;;;;;;;;;;;;;18.35;45.53;97941.28;4992293;28;20274;-62
2023/06/02 09:37:25;;;;;;;;;;;;;;;18.35;45.03;97928.34;4989089;28;19921;-61
2023/06/02 09:39:54;;;;;;;;;;;;;;;18.45;45.39;97943.47;4990514;28;20071;-61
2023/06/02 09:42:22;;;;;;;;;;;;;;;18.48;44.93;97937.22;4991264;28;19933;-61
2023/06/02 09:45:02;;;;;;;;;;;;;;;18.41;44.01;97948.88;4989960;28;19996;-60
2023/06/02 09:47:30;;;;;;;;;;;;;;;18.44;44.41;97947.38;4989466;28;19956;-61
2023/06/02 09:50:00;;;;;;;;;;;;;;;18.42;43.57;97938.69;4968404;28;19951;-61
2023/06/02 09:52:27;;;;;;;;;;;;;;;18.50;43.24;97932.97;4989885;28;19964;-61
2023/06/02 09:54:55;;;;;;;;;;;;;;;18.54;42.24;97941.31;4987075;28;19922;-61
2023/06/02 09:57:23;;;;;;;;;;;;;;;18.43;43.29;97945.78;4988130;28;19957;-61
2023/06/02 09:59:51;;;;;;;;;;;;;;;18.48;43.55;97932.56;4990224;28;19921;-61
2023/06/02 10:02:19;;;;;;;;;;;;;;;18.52;44.00;97932.59;4977736;28;19926;-61
2023/06/02 10:04:47;;;;;;;;;;;;;;;18.57;44.43;97940.56;4989611;28;19921;-60
2023/06/02 10:07:21;;;;;;;;;;;;;;;18.66;44.26;97935.63;4989129;28;20024;-60
2023/06/02 10:09:53;;;;;;;;;;;;;;;18.70;43.88;97939.28;4987704;28;20363;-61
2023/06/02 10:12:27;;;;;;;;;;;;;;;18.82;43.75;97935.56;4991108;28;19921;-66
2023/06/02 10:15:10;;;;;;;;;;;;;;;18.88;43.26;97939.63;4980503;28;19958;-60
2023/06/02 10:17:40;;;;;;;;;;;;;;;18.81;42.89;97937.53;4986661;28;19972;-61
2023/06/02 10:20:22;;;;;;;;;;;;;;;18.91;43.30;97932.56;4986930;28;19928;-61
2023/06/02 10:23:00;;;;;;;;;;;;;;;19.04;43.51;97936.75;4990501;28;19922;-61
2023/06/02 10:25:30;;;;;;;;;;;;;;;19.16;42.80;97927.50;4971860;28;19928;-61
2023/06/02 10:27:59;;;;;;;;;;;;;;;19.23;42.83;97922.13;4984495;28;20013;-63
2023/06/02 10:30:26;;;;;;;;;;;;;;;19.15;42.86;97929.47;4990372;28;19925;-60
2023/06/02 10:32:55;;;;;;;;;;;;;;;19.19;41.92;97927.59;5004425;28;19922;-65
2023/06/02 10:35:23;;;;;;;;;;;;;;;19.28;41.95;97930.06;4989537;28;19957;-60
2023/06/02 10:38:06;;;;;;;;;;;;;;;19.30;42.31;97920.28;4991097;28;19976;-62
2023/06/02 10:43:28;;;;;;;;;;;;;;;19.31;42.76;97918.34;5120084;27;19977;-58
2023/06/02 10:46:06;;;;;;;;;;;;;;;19.27;42.26;97918.25;5106469;28;19920;-58
2023/06/02 10:48:40;;;;;;;;;;;;;;;19.25;42.34;97922.56;5110876;28;19925;-59
2023/06/02 10:51:08;;;;;;;;;;;;;;;19.24;41.63;97930.03;5101155;28;19931;-59
2023/06/02 10:53:51;;;;;;;;;;;;;;;19.31;41.66;97926.59;5117349;28;19938;-60
2023/06/02 10:56:38;;;;;;;;;;;;;;;19.41;40.94;97923.22;5100120;27;20388;-61
2023/06/02 10:59:07;;;;;;;;;;;;;;;19.47;40.44;97931.97;5104686;28;19972;-62
2023/06/02 11:01:46;;;;;;;;;;;;;;;19.52;40.98;97920.63;5106086;28;20031;-60
2023/06/02 11:04:26;;;;;;;;;;;;;;;19.57;41.06;97910.09;5098482;28;20034;-59
2023/06/02 11:07:15;;;;;;;;;;;;;;;19.57;41.13;97909.31;5133212;27;20250;-67
2023/06/02 11:09:43;;;;;;;;;;;;;;;19.63;41.47;97916.91;5108638;28;19920;-60
2023/06/02 11:12:11;;;;;;;;;;;;;;;19.67;41.25;97918.94;5108087;28;19920;-60
2023/06/02 11:14:58;;;;;;;;;;;;;;;19.67;41.17;97928.00;5107588;28;20273;-59
2023/06/02 11:17:30;;;;;;;;;;;;;;;19.67;41.37;97916.97;5109697;28;20253;-60
2023/06/02 11:19:58;;;;;;;;;;;;;;;19.69;41.65;97922.09;5110993;28;20001;-61
2023/06/02 11:22:26;;;;;;;;;;;;;;;19.67;42.04;97916.97;5108840;28;19951;-61
2023/06/02 11:24:55;;;;;;;;;;;;;;;19.75;42.09;97913.13;5104845;28;19924;-66
2023/06/02 11:27:35;;;;;;;;;;;;;;;19.84;41.23;97918.38;5108374;28;19923;-59
2023/06/02 11:30:08;;;;;;;;;;;;;;;19.83;41.12;97919.56;5105185;28;20007;-59
2023/06/02 11:32:37;;;;;;;;;;;;;;;19.87;40.99;97921.19;5096323;28;19942;-59
2023/06/02 11:35:07;;;;;;;;;;;;;;;19.97;40.67;97921.72;5105481;28;19926;-61
2023/06/02 11:37:38;;;;;;;;;;;;;;;19.99;39.86;97919.38;5099027;28;19920;-60
2023/06/02 11:40:07;;;;;;;;;;;;;;;20.01;39.77;97923.34;5115283;27;19924;-61
2023/06/02 11:42:39;;;;;;;;;;;;;;;20.00;39.83;97916.25;5090997;28;19936;-61
2023/06/02 11:45:07;;;;;;;;;;;;;;;19.99;39.34;97919.38;5104216;27;19936;-59
2023/06/02 11:47:36;;;;;;;;;;;;;;;19.99;39.39;97911.91;5101301;28;20299;-59
2023/06/02 11:50:04;;;;;;;;;;;;;;;20.05;39.55;97920.66;5097117;28;19973;-59
2023/06/02 11:52:33;;;;;;;;;;;;;;;20.03;39.22;97920.25;5101335;28;19981;-59
2023/06/02 11:55:04;;;;;;;;;;;;;;;19.92;39.68;97909.06;5080837;28;19932;-59
2023/06/02 11:57:34;;;;;;;;;;;;;;;19.97;40.10;97910.69;5077201;28;19948;-59
2023/06/02 12:00:06;;;;;;;;;;;;;;;20.03;40.04;97909.22;5080866;28;19966;-60
2023/06/02 12:02:35;;;;;;;;;;;;;;;20.10;39.75;97918.34;5079589;28;19958;-59
2023/06/02 12:05:05;;;;;;;;;;;;;;;20.19;39.64;97917.25;5078063;28;19952;-59
2023/06/02 12:07:33;;;;;;;;;;;;;;;20.23;38.78;97918.91;5079133;28;20010;-58
2023/06/02 12:10:00;;;;;;;;;;;;;;;20.21;38.75;97921.25;5081415;28;19935;-59
2023/06/02 12:12:28;;;;;;;;;;;;;;;20.24;39.12;97919.69;5122084;27;19920;-59
2023/06/02 12:14:56;;;;;;;;;;;;;;;20.17;39.03;97917.66;5089979;28;19924;-59
2023/06/02 12:17:24;;;;;;;;;;;;;;;20.21;39.53;97910.22;5077079;28;19982;-59
2023/06/02 12:19:58;;;;;;;;;;;;;;;20.27;39.37;97911.47;5085322;28;19928;-60
2023/06/02 12:22:27;;;;;;;;;;;;;;;20.24;39.38;97903.97;5079120;28;21238;-59
2023/06/02 12:24:55;;;;;;;;;;;;;;;20.25;39.27;97905.56;5085424;28;19927;-62
2023/06/02 12:27:23;;;;;;;;;;;;;;;20.26;39.32;97907.13;5110198;27;19939;-62
2023/06/02 12:29:53;;;;;;;;;;;;;;;20.37;39.54;97908.06;5081213;28;20019;-65
2023/06/02 12:32:27;;;;;;;;;;;;;;;20.41;39.15;97914.41;5079797;28;20416;-57
2023/06/02 12:34:55;;;;;;;;;;;;;;;20.41;39.38;97905.34;5077128;28;19936;-63
2023/06/02 12:37:22;;;;;;;;;;;;;;;20.56;38.88;97909.06;5079915;28;19966;-58
2023/06/02 12:39:51;;;;;;;;;;;;;;;20.45;38.25;97903.41;5079259;28;20413;-61
2023/06/02 12:42:20;;;;;;;;;;;;;;;20.60;38.79;97901.63;5077921;28;19924;-61
2023/06/02 12:44:49;;;;;;;;;;;;;;;20.68;37.25;97906.06;5078605;28;19960;-59
2023/06/02 12:47:19;;;;;;;;;;;;;;;20.63;37.12;97906.41;5088703;28;19932;-60
2023/06/02 12:49:48;;;;;;;;;;;;;;;20.65;37.34;97896.56;5080826;28;19920;-60
2023/06/02 12:52:16;;;;;;;;;;;;;;;20.71;38.01;97907.28;5087795;28;20348;-59
2023/06/02 12:54:44;;;;;;;;;;;;;;;20.72;38.19;97897.81;5099418;28;19932;-59
2023/06/02 12:57:13;;;;;;;;;;;;;;;20.62;36.89;97910.34;5078081;28;19970;-60
2023/06/02 12:59:41;;;;;;;;;;;;;;;20.74;37.79;97910.09;5077064;28;19921;-59
2023/06/02 13:02:08;;;;;;;;;;;;;;;20.72;36.87;97911.63;5077847;28;19927;-59
2023/06/02 13:04:36;;;;;;;;;;;;;;;20.65;37.26;97902.09;5079137;28;19928;-59
2023/06/02 13:07:06;;;;;;;;;;;;;;;20.68;36.87;97903.31;5077442;28;19921;-64